Time;durP1;ratioP1;P1;durP2;ratioP2;P2;SDS_P1;SDS_P2;PMS_P1;PMS_P2;Temp;Humidity;BMP_temperature;BMP_pressure;BME280_temperature;BME280_humidity;BME280_pressure;Samples;Min_cycle;Max_cycle;Signal;HPM_P1;HPM_P2
2021/06/01 00:00:41;;;;;;;3.50;2.87;;;13.10;53.70;;;;;;6190136;23;20074;-83
2021/06/01 00:03:07;;;;;;;3.17;2.83;;;13.10;53.80;;;;;;6190708;23;20004;-83
2021/06/01 00:05:33;;;;;;;5.03;2.83;;;13.10;53.90;;;;;;6189090;23;20005;-83
2021/06/01 00:07:58;;;;;;;10.17;3.33;;;13.00;53.90;;;;;;6214661;23;20027;-83
2021/06/01 00:10:24;;;;;;;4.63;3.47;;;13.00;54.00;;;;;;6187983;23;20083;-83
2021/06/01 00:12:50;;;;;;;4.53;2.97;;;12.90;54.10;;;;;;6188072;23;20087;-83
2021/06/01 00:15:16;;;;;;;5.53;3.07;;;12.90;54.00;;;;;;6188880;23;20007;-84
2021/06/01 00:17:42;;;;;;;7.23;2.73;;;13.00;53.90;;;;;;6189392;23;20001;-84
2021/06/01 00:20:10;;;;;;;4.77;2.80;;;13.00;53.90;;;;;;6189594;23;20005;-84
2021/06/01 00:22:37;;;;;;;3.83;3.10;;;13.10;53.80;;;;;;6188573;23;20008;-85
2021/06/01 00:25:04;;;;;;;5.13;2.73;;;13.10;53.40;;;;;;6189271;23;20005;-84
2021/06/01 00:27:30;;;;;;;7.10;3.10;;;13.20;53.10;;;;;;6215365;23;20008;-84
2021/06/01 00:29:56;;;;;;;6.13;3.00;;;13.20;52.80;;;;;;6188701;23;20008;-84
2021/06/01 00:32:21;;;;;;;4.03;2.90;;;13.20;52.60;;;;;;6189887;23;20031;-84
2021/06/01 00:34:47;;;;;;;3.87;2.77;;;13.20;52.60;;;;;;6189190;23;20009;-83
2021/06/01 00:37:13;;;;;;;3.70;2.93;;;13.10;52.80;;;;;;6189674;23;20004;-84
2021/06/01 00:39:38;;;;;;;6.50;3.50;;;13.00;53.20;;;;;;6189321;23;20016;-84
2021/06/01 00:42:05;;;;;;;5.53;3.17;;;12.90;53.40;;;;;;6216157;23;20031;-83
2021/06/01 00:44:30;;;;;;;5.37;3.47;;;12.90;53.80;;;;;;6189287;23;20041;-83
2021/06/01 00:46:57;;;;;;;3.60;2.63;;;12.80;53.70;;;;;;6189321;23;20351;-84
2021/06/01 00:49:22;;;;;;;4.83;3.23;;;12.70;53.90;;;;;;6215802;23;20009;-83
2021/06/01 00:51:48;;;;;;;4.90;3.30;;;12.70;54.10;;;;;;6188563;23;20050;-84
2021/06/01 00:54:14;;;;;;;4.17;3.07;;;12.60;54.10;;;;;;6183215;23;20454;-84
2021/06/01 00:56:42;;;;;;;4.60;3.03;;;12.60;54.30;;;;;;6205925;23;20004;-85
2021/06/01 00:59:07;;;;;;;5.23;3.57;;;12.60;54.60;;;;;;6178699;23;20316;-85
2021/06/01 01:01:33;;;;;;;4.40;3.20;;;12.50;54.60;;;;;;6184407;23;20005;-83
2021/06/01 01:03:59;;;;;;;5.47;3.00;;;12.50;54.70;;;;;;6188666;23;20013;-84
2021/06/01 01:06:44;;;;;;;4.43;3.30;;;12.50;54.70;;;;;;6187679;23;20005;-84
2021/06/01 01:09:13;;;;;;;7.37;3.33;;;12.50;54.90;;;;;;6215783;23;20009;-84
2021/06/01 01:12:02;;;;;;;5.63;3.03;;;12.50;55.00;;;;;;6188463;23;20009;-84
2021/06/01 01:14:42;;;;;;;3.67;2.50;;;12.50;54.90;;;;;;6168669;23;20008;-84
2021/06/01 01:17:19;;;;;;;5.67;3.10;;;12.50;55.10;;;;;;6188959;23;20378;-84
2021/06/01 01:20:09;;;;;;;3.53;3.00;;;12.40;55.30;;;;;;6188576;23;20013;-83
2021/06/01 01:22:42;;;;;;;6.07;3.17;;;12.40;55.60;;;;;;6189099;23;20008;-83
2021/06/01 01:25:53;;;;;;;6.53;3.00;;;12.20;55.60;;;;;;6188702;23;20491;-84
2021/06/01 01:28:36;;;;;;;8.10;2.97;;;12.20;56.10;;;;;;6188869;23;20005;-84
2021/06/01 01:31:18;;;;;;;5.73;3.47;;;12.10;56.20;;;;;;6189181;23;20001;-83
2021/06/01 01:33:44;;;;;;;5.10;3.20;;;11.90;56.50;;;;;;6189221;23;20001;-84
2021/06/01 01:36:12;;;;;;;8.97;3.07;;;12.00;56.40;;;;;;6188925;23;20015;-83
2021/06/01 01:38:41;;;;;;;5.33;2.90;;;12.00;56.40;;;;;;6188608;23;20548;-84
2021/06/01 01:41:14;;;;;;;6.77;3.67;;;12.00;56.20;;;;;;6188944;23;20006;-84
2021/06/01 01:43:47;;;;;;;4.53;3.53;;;11.90;56.60;;;;;;6188628;23;20020;-84
2021/06/01 01:46:30;;;;;;;4.80;3.40;;;11.70;56.90;;;;;;6189254;23;20395;-83
2021/06/01 01:49:00;;;;;;;4.50;3.10;;;11.60;57.20;;;;;;6188042;23;20017;-84
2021/06/01 01:51:43;;;;;;;4.97;3.23;;;11.50;57.50;;;;;;6215467;23;20074;-83
2021/06/01 01:54:21;;;;;;;5.20;3.70;;;11.40;57.80;;;;;;6189602;23;20008;-83
2021/06/01 01:56:51;;;;;;;6.07;3.20;;;11.30;58.00;;;;;;6190335;23;20001;-83
2021/06/01 01:59:20;;;;;;;5.07;3.47;;;11.30;58.20;;;;;;6189409;23;20016;-83
2021/06/01 02:01:51;;;;;;;7.50;3.03;;;11.30;58.20;;;;;;6189735;23;20087;-83
2021/06/01 02:04:28;;;;;;;6.80;3.80;;;11.40;58.40;;;;;;6215142;23;20012;-83
2021/06/01 02:06:57;;;;;;;5.93;3.20;;;11.40;58.40;;;;;;6188127;23;20494;-84
2021/06/01 02:09:24;;;;;;;4.03;3.03;;;11.40;58.50;;;;;;6188679;23;20008;-84
2021/06/01 02:11:50;;;;;;;5.90;3.30;;;11.30;58.50;;;;;;6188461;23;20005;-84
2021/06/01 02:14:17;;;;;;;4.60;3.00;;;11.40;58.30;;;;;;6188342;23;20012;-83
2021/06/01 02:16:43;;;;;;;3.90;2.47;;;11.40;58.30;;;;;;6188196;23;20445;-83
2021/06/01 02:19:12;;;;;;;3.73;2.87;;;11.40;58.00;;;;;;6188306;23;20066;-84
2021/06/01 02:24:24;;;;;;;5.53;3.03;;;11.50;57.30;;;;;;6214794;23;20015;-83
2021/06/01 02:27:25;;;;;;;4.23;2.53;;;11.50;57.20;;;;;;6188186;23;20082;-84
2021/06/01 02:30:07;;;;;;;4.23;2.93;;;11.60;57.00;;;;;;6188155;23;20059;-83
2021/06/01 02:32:40;;;;;;;6.00;2.95;;;11.50;57.10;;;;;;6188416;23;20106;-84
2021/06/01 02:35:12;;;;;;;6.13;3.37;;;11.40;57.30;;;;;;6214624;23;20008;-83
2021/06/01 02:37:43;;;;;;;7.93;2.80;;;11.40;57.50;;;;;;6187265;23;20001;-84
2021/06/01 02:40:11;;;;;;;3.00;2.60;;;11.30;57.60;;;;;;6188017;23;20008;-83
2021/06/01 02:42:42;;;;;;;4.67;2.83;;;11.30;57.80;;;;;;6188240;23;20447;-83
2021/06/01 02:45:11;;;;;;;3.70;3.00;;;11.20;58.30;;;;;;6215031;23;20013;-83
2021/06/01 02:47:37;;;;;;;5.07;3.20;;;11.20;57.90;;;;;;6188141;23;20339;-83
2021/06/01 02:50:06;;;;;;;3.67;3.03;;;11.10;58.10;;;;;;6183296;23;20008;-84
2021/06/01 02:52:33;;;;;;;5.73;3.50;;;11.10;58.30;;;;;;6211902;23;19997;-84
2021/06/01 02:55:01;;;;;;;4.83;3.40;;;11.10;58.40;;;;;;6188004;23;20062;-83
2021/06/01 02:57:27;;;;;;;4.13;3.30;;;11.00;58.70;;;;;;6188276;23;20378;-83
2021/06/01 02:59:54;;;;;;;4.90;3.43;;;10.90;58.90;;;;;;6188170;23;20098;-84
2021/06/01 03:02:19;;;;;;;4.13;3.30;;;10.90;59.10;;;;;;6188214;23;20015;-83
2021/06/01 03:04:49;;;;;;;4.00;2.87;;;10.80;59.30;;;;;;6188093;23;20001;-83
2021/06/01 03:07:15;;;;;;;5.13;2.97;;;10.80;59.70;;;;;;6187574;23;20008;-83
2021/06/01 03:09:41;;;;;;;3.63;2.80;;;10.80;59.80;;;;;;6214705;23;20390;-83
2021/06/01 03:12:08;;;;;;;5.77;3.00;;;10.80;59.80;;;;;;6188472;23;20060;-83
2021/06/01 03:14:34;;;;;;;4.97;3.50;;;10.80;59.70;;;;;;6214699;23;20547;-84
2021/06/01 03:16:59;;;;;;;4.47;3.23;;;10.80;59.50;;;;;;6188751;23;20083;-83
2021/06/01 03:19:25;;;;;;;7.60;3.40;;;10.80;59.60;;;;;;6187658;23;20381;-83
2021/06/01 03:21:51;;;;;;;3.47;3.17;;;10.80;59.80;;;;;;6214486;23;20016;-83
2021/06/01 03:24:16;;;;;;;7.03;4.03;;;10.70;59.80;;;;;;6188090;23;20031;-83
2021/06/01 03:26:42;;;;;;;7.00;3.80;;;10.70;59.90;;;;;;6215101;23;20000;-83
2021/06/01 03:29:08;;;;;;;8.43;4.00;;;10.70;59.90;;;;;;6188973;23;20012;-83
2021/06/01 03:31:34;;;;;;;6.77;3.40;;;10.70;59.90;;;;;;6188594;23;20004;-83
2021/06/01 03:34:02;;;;;;;11.20;3.80;;;10.60;60.00;;;;;;6188620;23;20004;-83
2021/06/01 03:36:28;;;;;;;4.87;3.17;;;10.60;60.30;;;;;;6188270;23;20012;-83
2021/06/01 03:38:54;;;;;;;6.30;3.50;;;10.60;60.40;;;;;;6187661;23;20339;-85
2021/06/01 03:41:20;;;;;;;6.63;4.27;;;10.50;60.50;;;;;;6214521;23;20009;-83
2021/06/01 03:43:45;;;;;;;6.57;4.60;;;10.50;60.50;;;;;;6188188;23;20009;-83
2021/06/01 03:46:11;;;;;;;6.77;4.63;;;10.50;60.50;;;;;;6183114;23;20329;-83
2021/06/01 03:48:37;;;;;;;5.17;3.83;;;10.50;60.50;;;;;;6183178;23;20012;-83
2021/06/01 03:51:03;;;;;;;8.03;3.97;;;10.40;60.80;;;;;;6184687;23;20005;-83
2021/06/01 03:53:28;;;;;;;5.23;3.57;;;10.40;61.00;;;;;;6185823;23;19998;-83
2021/06/01 03:55:54;;;;;;;5.17;3.63;;;10.50;60.80;;;;;;6185320;23;20387;-85
2021/06/01 03:58:20;;;;;;;6.93;3.47;;;10.60;60.60;;;;;;6185335;23;20706;-83
2021/06/01 04:00:46;;;;;;;6.10;3.03;;;10.60;60.50;;;;;;6187114;23;20004;-83
2021/06/01 04:03:12;;;;;;;6.70;3.13;;;10.60;60.30;;;;;;6185167;23;20072;-83
2021/06/01 04:05:38;;;;;;;5.33;3.70;;;10.70;60.10;;;;;;6184597;23;20001;-83
2021/06/01 04:08:05;;;;;;;5.40;3.37;;;10.60;60.00;;;;;;6184870;23;20012;-83
2021/06/01 04:10:32;;;;;;;5.33;3.33;;;10.60;60.20;;;;;;6184809;23;20005;-83
2021/06/01 04:12:58;;;;;;;6.10;4.10;;;10.70;60.20;;;;;;6184827;23;20004;-83
2021/06/01 04:15:25;;;;;;;6.27;4.23;;;10.70;60.10;;;;;;6184776;23;20001;-83
2021/06/01 04:17:50;;;;;;;5.77;3.80;;;10.70;60.20;;;;;;6185902;23;20004;-83
2021/06/01 04:20:17;;;;;;;8.40;4.13;;;10.70;60.40;;;;;;6184292;23;20013;-83
2021/06/01 04:22:44;;;;;;;7.20;4.53;;;10.70;60.20;;;;;;6184463;23;20088;-83
2021/06/01 04:25:10;;;;;;;7.17;4.37;;;10.80;60.20;;;;;;6186163;23;20011;-83
2021/06/01 04:27:36;;;;;;;7.83;4.27;;;10.80;60.00;;;;;;6184625;23;20044;-84
2021/06/01 04:30:05;;;;;;;12.93;4.73;;;10.70;60.00;;;;;;6184710;23;20005;-84
2021/06/01 04:32:31;;;;;;;7.33;4.27;;;10.70;60.20;;;;;;6184396;23;20005;-83
2021/06/01 04:34:57;;;;;;;7.97;4.43;;;10.60;60.30;;;;;;6184809;23;20028;-83
2021/06/01 04:37:22;;;;;;;8.97;5.23;;;10.60;60.50;;;;;;6182965;23;20015;-83
2021/06/01 04:39:48;;;;;;;5.80;4.10;;;10.60;60.80;;;;;;6186110;23;20005;-83
2021/06/01 04:42:15;;;;;;;7.93;4.17;;;10.60;60.90;;;;;;6186272;23;20466;-83
2021/06/01 04:44:41;;;;;;;9.37;4.53;;;10.70;61.00;;;;;;6184359;23;20013;-83
2021/06/01 04:47:06;;;;;;;12.37;5.33;;;10.70;60.90;;;;;;6183938;23;20013;-84
2021/06/01 04:49:32;;;;;;;14.00;5.53;;;10.60;61.00;;;;;;6184063;23;20395;-83
2021/06/01 04:51:58;;;;;;;10.10;6.20;;;10.60;61.30;;;;;;6182929;23;20032;-84
2021/06/01 04:54:24;;;;;;;14.23;7.17;;;10.60;61.70;;;;;;6183943;23;20009;-83
2021/06/01 04:56:50;;;;;;;13.17;7.20;;;10.60;62.50;;;;;;6184456;23;20012;-83
2021/06/01 04:59:15;;;;;;;19.97;8.73;;;10.60;62.00;;;;;;6184968;23;20129;-84
2021/06/01 05:01:41;;;;;;;24.07;11.17;;;10.60;62.10;;;;;;6182725;23;20412;-84
2021/06/01 05:04:07;;;;;;;16.00;8.23;;;10.60;62.30;;;;;;6183804;23;20100;-84
2021/06/01 05:06:33;;;;;;;15.80;8.23;;;10.60;62.40;;;;;;6185672;23;20031;-82
2021/06/01 05:08:59;;;;;;;17.40;7.50;;;10.60;62.50;;;;;;6188455;23;20005;-83
2021/06/01 05:11:24;;;;;;;13.00;7.80;;;10.60;62.60;;;;;;6187242;23;20004;-82
2021/06/01 05:13:50;;;;;;;15.00;7.17;;;10.60;62.70;;;;;;6185702;23;20003;-84
2021/06/01 05:16:16;;;;;;;14.17;6.90;;;10.60;62.70;;;;;;6183888;23;20009;-84
2021/06/01 05:18:42;;;;;;;14.13;6.73;;;10.70;62.60;;;;;;6183446;23;20009;-84
2021/06/01 05:21:08;;;;;;;11.63;6.57;;;10.80;62.30;;;;;;6183760;23;20088;-83
2021/06/01 05:23:35;;;;;;;12.63;5.43;;;10.90;62.00;;;;;;6184802;23;20277;-84
2021/06/01 05:26:01;;;;;;;8.20;4.97;;;10.90;61.50;;;;;;6183652;23;20435;-84
2021/06/01 05:28:27;;;;;;;9.10;4.80;;;11.00;61.30;;;;;;6183361;23;20009;-84
2021/06/01 05:33:38;;;;;;;9.17;5.07;;;11.10;60.70;;;;;;6186130;23;20498;-83
2021/06/01 05:36:05;;;;;;;10.23;6.00;;;11.10;60.50;;;;;;6183838;23;20079;-84
2021/06/01 05:38:31;;;;;;;8.33;6.40;;;11.00;60.70;;;;;;6184754;23;19993;-84
2021/06/01 05:40:58;;;;;;;7.20;5.33;;;11.00;61.10;;;;;;6183360;23;20033;-82
2021/06/01 05:43:24;;;;;;;6.50;5.27;;;11.00;61.40;;;;;;6183184;23;20001;-83
2021/06/01 05:45:50;;;;;;;11.27;6.13;;;11.00;61.50;;;;;;6183993;23;20340;-84
2021/06/01 05:48:16;;;;;;;12.20;6.27;;;11.00;61.60;;;;;;6183552;23;20025;-84
2021/06/01 05:50:42;;;;;;;9.57;5.80;;;11.00;61.80;;;;;;6183486;23;20059;-83
2021/06/01 05:53:09;;;;;;;10.43;6.17;;;11.10;62.10;;;;;;6183523;23;20395;-84
2021/06/01 05:55:36;;;;;;;8.33;4.97;;;11.10;62.20;;;;;;6185209;23;20064;-83
2021/06/01 05:58:03;;;;;;;9.33;5.80;;;11.20;62.30;;;;;;6185292;23;20379;-83
2021/06/01 06:00:30;;;;;;;11.53;5.60;;;11.20;62.00;;;;;;6183593;23;20013;-84
2021/06/01 06:02:57;;;;;;;7.83;5.43;;;11.30;61.70;;;;;;6184104;23;20028;-83
2021/06/01 06:05:23;;;;;;;7.63;5.30;;;11.40;61.50;;;;;;6185764;23;20087;-83
2021/06/01 06:07:50;;;;;;;10.03;5.93;;;11.40;61.30;;;;;;6185080;23;20402;-83
2021/06/01 06:10:16;;;;;;;12.73;6.00;;;11.50;61.00;;;;;;6184532;23;20009;-84
2021/06/01 06:12:46;;;;;;;11.63;5.67;;;11.50;60.80;;;;;;6184040;23;20340;-84
2021/06/01 06:15:15;;;;;;;9.97;6.03;;;11.60;61.00;;;;;;6183651;23;20005;-83
2021/06/01 06:17:53;;;;;;;9.80;5.53;;;11.60;61.00;;;;;;6184506;23;20001;-84
2021/06/01 06:20:18;;;;;;;10.87;5.47;;;11.60;61.10;;;;;;6183370;23;20012;-84
2021/06/01 06:22:45;;;;;;;11.07;6.40;;;11.60;61.00;;;;;;6183514;23;20087;-84
2021/06/01 06:25:12;;;;;;;9.50;6.23;;;11.60;61.10;;;;;;6184977;23;20005;-84
2021/06/01 06:27:38;;;;;;;10.50;6.17;;;11.60;61.30;;;;;;6184837;23;20438;-83
2021/06/01 06:30:07;;;;;;;13.07;6.33;;;11.70;61.40;;;;;;6182947;23;20436;-84
2021/06/01 06:32:33;;;;;;;13.50;5.90;;;11.70;61.50;;;;;;6183537;23;20009;-84
2021/06/01 06:34:59;;;;;;;8.07;5.80;;;11.80;61.20;;;;;;6183351;23;20009;-84
2021/06/01 06:37:25;;;;;;;15.80;6.10;;;11.80;61.20;;;;;;6184787;23;20431;-84
2021/06/01 06:39:51;;;;;;;11.53;6.20;;;11.90;61.00;;;;;;6183211;23;20005;-84
2021/06/01 06:42:17;;;;;;;9.50;5.70;;;11.90;60.70;;;;;;6184987;23;20005;-83
2021/06/01 06:44:48;;;;;;;8.93;6.00;;;12.00;60.70;;;;;;6191383;23;20012;-84
2021/06/01 06:49:39;;;;;;;12.10;5.80;;;12.20;60.80;;;;;;6215598;23;20023;-83
2021/06/01 06:52:09;;;;;;;14.50;6.57;;;12.40;60.50;;;;;;6188210;23;20031;-84
2021/06/01 06:54:35;;;;;;;7.83;5.60;;;12.60;60.30;;;;;;6188382;23;20505;-84
2021/06/01 06:57:01;;;;;;;14.97;5.80;;;12.70;60.10;;;;;;6183406;23;20001;-85
2021/06/01 06:59:27;;;;;;;7.53;5.03;;;12.80;60.00;;;;;;6184147;23;20009;-84
2021/06/01 07:01:52;;;;;;;9.40;5.07;;;13.00;59.70;;;;;;6187818;23;20382;-84
2021/06/01 07:04:18;;;;;;;10.83;5.33;;;13.10;58.80;;;;;;6187176;23;20005;-84
2021/06/01 07:06:49;;;;;;;6.33;3.93;;;13.30;58.60;;;;;;6188345;23;20539;-84
2021/06/01 07:09:15;;;;;;;7.53;4.60;;;13.50;58.40;;;;;;6187938;23;20040;-84
2021/06/01 07:11:42;;;;;;;5.00;3.50;;;13.60;57.90;;;;;;6188479;23;20011;-85
2021/06/01 07:14:14;;;;;;;14.47;4.20;;;13.80;57.50;;;;;;6215062;23;20020;-84
2021/06/01 07:16:39;;;;;;;10.00;5.20;;;13.90;56.90;;;;;;6188102;23;20107;-85
2021/06/01 07:19:05;;;;;;;4.83;3.37;;;14.00;56.60;;;;;;6188087;23;20024;-84
2021/06/01 07:21:32;;;;;;;6.57;3.80;;;14.10;56.50;;;;;;6188298;23;20063;-84
2021/06/01 07:23:58;;;;;;;3.53;3.00;;;14.20;56.30;;;;;;6187770;23;20009;-84
2021/06/01 07:26:24;;;;;;;7.83;3.33;;;14.30;55.50;;;;;;6189751;23;20051;-84
2021/06/01 07:28:50;;;;;;;8.63;3.77;;;14.50;55.50;;;;;;6189865;23;20053;-84
2021/06/01 07:31:17;;;;;;;15.67;4.30;;;14.60;55.40;;;;;;6190320;23;20001;-84
2021/06/01 07:33:44;;;;;;;5.97;4.33;;;14.70;54.80;;;;;;6190374;23;20004;-84
2021/06/01 07:36:10;;;;;;;12.17;5.67;;;14.80;54.70;;;;;;6190330;23;20004;-83
2021/06/01 07:38:36;;;;;;;11.27;5.67;;;14.90;54.10;;;;;;6189501;23;20343;-84
2021/06/01 07:41:03;;;;;;;8.57;4.47;;;15.00;54.10;;;;;;6190197;23;20001;-84
2021/06/01 07:43:30;;;;;;;11.03;3.80;;;15.10;53.40;;;;;;6189428;23;20005;-84
2021/06/01 07:45:56;;;;;;;10.57;4.17;;;15.40;53.50;;;;;;6216576;23;20004;-84
2021/06/01 07:48:22;;;;;;;5.03;3.53;;;15.70;53.40;;;;;;6189941;23;20834;-83
2021/06/01 07:50:50;;;;;;;7.87;3.20;;;16.10;52.90;;;;;;6189869;23;20435;-84
2021/06/01 07:53:16;;;;;;;8.03;3.03;;;16.30;52.30;;;;;;6189731;23;20012;-84
2021/06/01 07:55:41;;;;;;;4.87;2.93;;;16.60;52.10;;;;;;6190039;23;20335;-84
2021/06/01 07:58:07;;;;;;;5.33;2.90;;;16.80;51.50;;;;;;6190011;23;20431;-83
2021/06/01 08:00:33;;;;;;;4.20;3.05;;;17.00;51.10;;;;;;6190079;23;20008;-84
2021/06/01 08:02:59;;;;;;;5.57;3.35;;;17.10;50.60;;;;;;6189966;23;20009;-83
2021/06/01 08:05:25;;;;;;;6.28;2.72;;;17.30;50.60;;;;;;6189531;23;20470;-84
2021/06/01 08:07:51;;;;;;;6.65;2.78;;;17.50;50.40;;;;;;6189719;23;20462;-84
2021/06/01 08:10:18;;;;;;;4.68;2.92;;;17.60;50.20;;;;;;6189715;23;20005;-84
2021/06/01 08:12:45;;;;;;;5.30;2.97;;;17.80;50.10;;;;;;6189695;23;20036;-84
2021/06/01 08:15:11;;;;;;;7.28;2.80;;;18.00;49.60;;;;;;6215879;23;19997;-86
2021/06/01 08:17:37;;;;;;;6.82;2.70;;;18.10;49.40;;;;;;6190286;23;20004;-84
2021/06/01 08:20:40;;;;;;;3.22;2.17;;;18.30;49.00;;;;;;6189922;23;20005;-84
2021/06/01 08:22:56;;;;;;;;;;;18.50;48.10;;;;;;6209438;23;20063;-84
2021/06/01 08:25:21;;;;;;;5.68;2.78;;;18.60;48.10;;;;;;6216032;23;19904;-84
2021/06/01 08:27:48;;;;;;;7.97;2.50;;;18.70;47.70;;;;;;6189861;23;20087;-83
2021/06/01 08:30:31;;;;;;;5.85;2.53;;;18.90;47.00;;;;;;6189214;23;20012;-84
2021/06/01 08:32:57;;;;;;;5.65;2.00;;;19.00;46.10;;;;;;6189133;23;20001;-84
2021/06/01 08:35:23;;;;;;;4.03;2.78;;;19.10;45.70;;;;;;6186428;23;19997;-84
2021/06/01 08:37:50;;;;;;;3.53;2.35;;;19.20;45.40;;;;;;6183779;23;20001;-86
2021/06/01 08:40:16;;;;;;;5.97;2.83;;;19.30;45.30;;;;;;6188311;23;20009;-83
2021/06/01 08:42:43;;;;;;;5.82;3.00;;;19.40;45.00;;;;;;6189204;23;20142;-85
2021/06/01 08:45:09;;;;;;;4.97;2.55;;;19.50;44.60;;;;;;6187607;23;20020;-84
2021/06/01 08:47:38;;;;;;;3.85;2.53;;;19.60;44.10;;;;;;6186774;23;20015;-84
2021/06/01 08:50:06;;;;;;;2.55;2.10;;;19.60;43.70;;;;;;6189259;23;20008;-84
2021/06/01 08:52:32;;;;;;;4.82;2.38;;;19.80;43.80;;;;;;6188368;23;20027;-84
2021/06/01 08:54:58;;;;;;;5.43;2.28;;;19.90;43.60;;;;;;6181576;23;20412;-84
2021/06/01 08:57:25;;;;;;;3.97;2.42;;;20.00;43.40;;;;;;6179491;23;20012;-85
2021/06/01 08:59:51;;;;;;;4.50;2.38;;;20.00;43.00;;;;;;6185248;23;20001;-84
2021/06/01 09:02:23;;;;;;;7.90;2.17;;;20.10;43.00;;;;;;6215551;23;20072;-84
2021/06/01 09:04:57;;;;;;;7.88;2.50;;;20.20;42.60;;;;;;6189228;23;20347;-84
2021/06/01 09:10:22;;;;;;;5.68;2.53;;;20.30;42.70;;;;;;6224864;23;20422;-84
2021/06/01 09:21:32;;;;;;;2.95;2.65;;;20.60;41.60;;;;;;6215924;23;20012;-86
2021/06/01 09:24:02;;;;;;;5.07;2.92;;;20.70;41.20;;;;;;6215923;23;20016;-87
2021/06/01 09:27:13;;;;;;;5.55;2.20;;;20.70;41.10;;;;;;6215016;23;20056;-86
2021/06/01 09:29:48;;;;;;;5.45;2.65;;;20.80;40.70;;;;;;6174311;23;20062;-85
2021/06/01 09:32:17;;;;;;;4.82;2.70;;;20.90;40.80;;;;;;6189808;23;20079;-86
2021/06/01 09:34:54;;;;;;;4.90;2.60;;;21.00;40.70;;;;;;6189866;23;20011;-85
2021/06/01 09:37:23;;;;;;;4.82;2.78;;;21.10;39.90;;;;;;6189315;23;20004;-87
2021/06/01 09:40:18;;;;;;;4.05;2.38;;;21.10;40.20;;;;;;6188456;23;20343;-86
2021/06/01 09:42:45;;;;;;;3.80;2.17;;;21.30;40.40;;;;;;6188884;23;20011;-84
2021/06/01 09:45:16;;;;;;;9.38;2.55;;;21.40;40.20;;;;;;6188021;23;20509;-84
2021/06/01 09:47:48;;;;;;;6.40;2.70;;;21.40;39.80;;;;;;6185738;23;20004;-84
2021/06/01 09:52:52;;;;;;;6.10;2.90;;;21.60;39.60;;;;;;6223226;23;20004;-84
2021/06/01 09:55:26;;;;;;;6.65;2.20;;;21.60;39.60;;;;;;6186468;23;20087;-85
2021/06/01 09:57:53;;;;;;;5.43;2.55;;;21.80;39.60;;;;;;6187926;23;20427;-84
2021/06/01 10:00:21;;;;;;;4.75;2.45;;;21.70;39.20;;;;;;6188274;23;20028;-84
2021/06/01 10:03:02;;;;;;;6.55;2.97;;;21.80;39.10;;;;;;6188665;23;20111;-87
2021/06/01 10:05:34;;;;;;;5.43;2.55;;;21.90;38.70;;;;;;6187496;23;20009;-84
2021/06/01 10:08:19;;;;;;;5.18;3.13;;;21.90;38.60;;;;;;6214541;23;20000;-84
2021/06/01 10:10:51;;;;;;;8.88;2.90;;;21.90;38.70;;;;;;6191586;23;20008;-84
2021/06/01 10:13:17;;;;;;;6.60;2.60;;;22.10;38.90;;;;;;6189715;23;20087;-84
2021/06/01 10:15:43;;;;;;;9.70;2.92;;;22.10;38.60;;;;;;6189387;23;20001;-84
2021/06/01 10:18:11;;;;;;;5.80;2.92;;;22.20;38.50;;;;;;6215119;23;20080;-84
2021/06/01 10:20:38;;;;;;;4.30;2.30;;;22.30;38.40;;;;;;6188105;23;20011;-84
2021/06/01 10:23:07;;;;;;;6.20;2.60;;;22.30;38.20;;;;;;6215309;23;20008;-83
2021/06/01 10:25:33;;;;;;;4.30;2.75;;;22.40;38.10;;;;;;6186702;23;20427;-84
2021/06/01 10:28:02;;;;;;;3.58;2.17;;;22.40;37.90;;;;;;6186843;23;20007;-84
2021/06/01 10:30:31;;;;;;;4.43;2.15;;;22.50;37.90;;;;;;6187619;23;20005;-84
2021/06/01 10:33:02;;;;;;;4.35;2.47;;;22.50;37.80;;;;;;6188287;23;20382;-84
2021/06/01 10:35:36;;;;;;;6.60;2.83;;;22.60;37.60;;;;;;6187034;23;20012;-83
2021/06/01 10:50:05;;;;;;;6.43;2.40;;;23.10;37.10;;;;;;6213797;23;20339;-84
2021/06/01 10:52:31;;;;;;;4.05;2.30;;;23.10;36.90;;;;;;6188410;23;20032;-84
2021/06/01 10:55:07;;;;;;;3.80;2.20;;;23.10;36.80;;;;;;6212888;23;20004;-84
2021/06/01 10:57:56;;;;;;;3.88;2.83;;;23.20;36.50;;;;;;6186259;23;20079;-84
2021/06/01 11:03:17;;;;;;;3.55;2.30;;;23.30;36.40;;;;;;6224753;23;20031;-84
2021/06/01 11:05:59;;;;;;;5.25;2.50;;;23.20;36.00;;;;;;6187481;23;20012;-84
2021/06/01 11:08:45;;;;;;;7.32;2.22;;;23.30;36.10;;;;;;6213761;23;20023;-87
2021/06/01 11:11:23;;;;;;;4.75;2.50;;;23.50;36.10;;;;;;6187197;23;20015;-85
2021/06/01 11:14:00;;;;;;;4.35;2.15;;;23.50;35.50;;;;;;6186992;23;20000;-84
2021/06/01 11:16:46;;;;;;;5.18;1.92;;;23.50;35.80;;;;;;6213076;23;20001;-85
2021/06/01 11:19:14;;;;;;;6.70;1.90;;;23.50;35.80;;;;;;6187238;23;20008;-84
2021/06/01 11:21:56;;;;;;;5.82;1.90;;;23.70;35.40;;;;;;6187553;23;20008;-84
2021/06/01 11:35:43;;;;;;;6.30;1.73;;;24.00;35.80;;;;;;6213346;23;20386;-84
2021/06/01 11:38:13;;;;;;;2.38;1.63;;;24.10;35.60;;;;;;6185017;23;20470;-85
2021/06/01 11:40:58;;;;;;;2.72;1.70;;;24.10;35.10;;;;;;6187039;23;20320;-86
2021/06/01 11:43:24;;;;;;;2.67;2.00;;;24.10;35.20;;;;;;6213670;23;20028;-85
2021/06/01 11:46:23;;;;;;;2.83;1.73;;;24.20;35.30;;;;;;6178545;23;20024;-84
2021/06/01 11:51:23;;;;;;;4.43;2.25;;;24.20;35.20;;;;;;6178047;23;20044;-85
2021/06/01 11:54:09;;;;;;;;;;;24.20;34.50;;;;;;6176156;23;20018;-85
2021/06/01 12:18:50;;;;;;;5.53;2.30;;;24.60;34.70;;;;;;6214455;23;20526;-85
2021/06/01 12:21:18;;;;;;;2.88;1.70;;;24.60;34.50;;;;;;6189134;23;20435;-85
2021/06/01 12:23:59;;;;;;;3.20;1.83;;;24.70;34.70;;;;;;6189332;23;20815;-86
2021/06/01 12:31:55;;;;;;;3.63;1.77;;;24.80;34.30;;;;;;6216016;23;20142;-86
2021/06/01 12:34:49;;;;;;;2.65;2.05;;;24.80;34.30;;;;;;6189262;23;20040;-85
2021/06/01 12:43:02;;;;;;;4.60;1.83;;;24.80;34.20;;;;;;6212506;23;20035;-85
2021/06/01 12:45:45;;;;;;;4.82;1.88;;;24.80;34.20;;;;;;6187009;23;20095;-86
2021/06/01 13:19:28;;;;;;;5.57;1.95;;;24.80;33.50;;;;;;6215867;23;20012;-85
2021/06/01 13:22:09;;;;;;;3.00;1.70;;;24.70;33.70;;;;;;6188921;23;20030;-86
2021/06/01 13:30:42;;;;;;;5.22;1.85;;;24.90;32.60;;;;;;6215293;23;20095;-85
2021/06/01 13:38:52;;;;;;;3.72;1.90;;;24.90;32.60;;;;;;6212990;23;20541;-85
2021/06/01 13:47:08;;;;;;;7.07;1.85;;;25.00;32.20;;;;;;6215579;23;20043;-85
2021/06/01 13:49:42;;;;;;;2.42;1.80;;;25.10;31.30;;;;;;6188155;23;20008;-85
2021/06/01 13:57:49;;;;;;;5.53;1.63;;;25.10;30.90;;;;;;6215274;23;20035;-85
2021/06/01 14:35:53;;;;;;;3.40;1.42;;;25.10;29.80;;;;;;6214585;23;20051;-85
2021/06/01 15:11:27;;;;;;;3.50;1.85;;;25.10;29.00;;;;;;6216928;23;20131;-87
2021/06/01 15:41:11;;;;;;;2.83;1.48;;;25.00;28.70;;;;;;6224726;23;20011;-85
2021/06/01 15:47:47;;;;;;;4.35;1.48;;;24.90;28.60;;;;;;6216617;23;20043;-86
2021/06/01 16:44:04;;;;;;;3.95;1.55;;;24.50;29.10;;;;;;6216329;23;20526;-87
2021/06/01 17:03:12;;;;;;;4.35;1.55;;;24.30;29.60;;;;;;6216032;23;20453;-86
2021/06/01 17:13:21;;;;;;;5.03;1.38;;;24.20;30.00;;;;;;6186201;23;20012;-86
2021/06/01 17:15:54;;;;;;;2.30;1.90;;;24.10;30.00;;;;;;6184046;23;20001;-87
2021/06/01 17:18:37;;;;;;;2.08;1.42;;;24.10;30.00;;;;;;6183879;23;20060;-86
2021/06/01 17:37:20;;;;;;;3.40;1.30;;;23.00;31.50;;;;;;6185257;23;20024;-84
2021/06/01 17:39:47;;;;;;;5.18;2.10;;;23.00;31.60;;;;;;6177146;23;20040;-86
2021/06/01 17:42:17;;;;;;;3.58;2.08;;;22.80;31.80;;;;;;6175860;23;20312;-86
2021/06/01 17:44:46;;;;;;;5.05;1.88;;;22.80;32.00;;;;;;6184339;23;20067;-84
2021/06/01 17:47:19;;;;;;;2.10;1.40;;;22.70;32.10;;;;;;6183540;23;20005;-84
2021/06/01 17:49:50;;;;;;;2.20;1.45;;;22.70;32.20;;;;;;6178644;23;20017;-86
2021/06/01 17:52:29;;;;;;;4.65;1.85;;;22.70;32.50;;;;;;6183406;23;20004;-85
2021/06/01 17:54:57;;;;;;;5.22;2.00;;;22.60;32.90;;;;;;6182729;23;20032;-84
2021/06/01 17:57:25;;;;;;;5.85;2.00;;;22.50;32.90;;;;;;6183686;23;20004;-85
2021/06/01 17:59:51;;;;;;;5.07;1.60;;;22.40;32.90;;;;;;6184973;23;20001;-84
2021/06/01 18:02:17;;;;;;;1.80;1.42;;;22.40;33.10;;;;;;6185261;23;20027;-84
2021/06/01 18:04:48;;;;;;;4.82;1.50;;;22.30;33.10;;;;;;6184371;23;20009;-84
2021/06/01 18:07:29;;;;;;;2.60;1.40;;;22.30;32.80;;;;;;6188242;23;20468;-84
2021/06/01 19:01:50;;;;;;;2.55;1.27;;;21.00;35.80;;;;;;6214438;23;20015;-85
2021/06/01 19:50:53;;;;;;;5.75;2.70;;;20.00;37.50;;;;;;6214215;23;20012;-84
2021/06/01 19:53:22;;;;;;;3.22;1.70;;;19.90;37.50;;;;;;6188749;23;20025;-84
2021/06/01 19:55:48;;;;;;;8.38;1.73;;;19.90;37.50;;;;;;6215155;23;20028;-84
2021/06/01 19:58:19;;;;;;;3.22;2.10;;;19.90;37.50;;;;;;6189644;23;20067;-84
2021/06/01 20:00:44;;;;;;;5.88;2.67;;;19.90;37.60;;;;;;6189445;23;20094;-85
2021/06/01 20:03:10;;;;;;;4.05;1.70;;;19.90;37.70;;;;;;6216181;23;20013;-85
2021/06/01 20:05:39;;;;;;;5.20;2.20;;;19.90;37.90;;;;;;6214944;23;20020;-85
2021/06/01 20:08:06;;;;;;;3.08;1.73;;;19.80;37.80;;;;;;6189215;23;20316;-84